sensor_id;sensor_type;location;lat;lon;timestamp;temperature;humidity
15343;DHT22;7771;48.478;8.936;2024-03-07T00:00:21;8.90;99.90
15343;DHT22;7771;48.478;8.936;2024-03-07T00:02:50;8.90;99.90
15343;DHT22;7771;48.478;8.936;2024-03-07T00:05:18;8.80;99.90
15343;DHT22;7771;48.478;8.936;2024-03-07T00:07:43;8.80;99.90
15343;DHT22;7771;48.478;8.936;2024-03-07T00:10:11;8.80;99.90
15343;DHT22;7771;48.478;8.936;2024-03-07T00:12:39;8.80;99.90
15343;DHT22;7771;48.478;8.936;2024-03-07T00:15:08;8.80;99.90
15343;DHT22;7771;48.478;8.936;2024-03-07T00:17:35;8.70;99.90
15343;DHT22;7771;48.478;8.936;2024-03-07T00:20:02;8.70;99.90
15343;DHT22;7771;48.478;8.936;2024-03-07T00:22:30;8.70;99.90
15343;DHT22;7771;48.478;8.936;2024-03-07T00:24:57;8.70;99.90
15343;DHT22;7771;48.478;8.936;2024-03-07T00:27:25;8.70;99.90
15343;DHT22;7771;48.478;8.936;2024-03-07T00:29:51;8.70;99.90
15343;DHT22;7771;48.478;8.936;2024-03-07T00:32:20;8.70;99.90
15343;DHT22;7771;48.478;8.936;2024-03-07T00:34:48;8.70;99.90
15343;DHT22;7771;48.478;8.936;2024-03-07T00:37:16;8.80;99.90
15343;DHT22;7771;48.478;8.936;2024-03-07T00:39:42;8.70;99.90
15343;DHT22;7771;48.478;8.936;2024-03-07T00:42:11;8.70;99.90
15343;DHT22;7771;48.478;8.936;2024-03-07T00:44:38;8.70;99.90
15343;DHT22;7771;48.478;8.936;2024-03-07T00:47:05;8.70;99.90
15343;DHT22;7771;48.478;8.936;2024-03-07T00:49:32;8.70;99.90
15343;DHT22;7771;48.478;8.936;2024-03-07T00:51:58;8.70;99.90
15343;DHT22;7771;48.478;8.936;2024-03-07T00:54:26;8.70;99.90
15343;DHT22;7771;48.478;8.936;2024-03-07T00:56:54;8.70;99.90
15343;DHT22;7771;48.478;8.936;2024-03-07T00:59:21;8.70;99.90
15343;DHT22;7771;48.478;8.936;2024-03-07T01:01:48;8.70;99.90
15343;DHT22;7771;48.478;8.936;2024-03-07T01:04:15;8.70;99.90
15343;DHT22;7771;48.478;8.936;2024-03-07T01:06:43;8.70;99.90
15343;DHT22;7771;48.478;8.936;2024-03-07T01:09:10;8.60;99.90
15343;DHT22;7771;48.478;8.936;2024-03-07T01:11:43;8.70;99.90
15343;DHT22;7771;48.478;8.936;2024-03-07T01:14:13;8.70;99.90
15343;DHT22;7771;48.478;8.936;2024-03-07T01:16:39;8.70;99.90
15343;DHT22;7771;48.478;8.936;2024-03-07T01:19:07;8.70;99.90
15343;DHT22;7771;48.478;8.936;2024-03-07T01:21:33;8.60;99.90
15343;DHT22;7771;48.478;8.936;2024-03-07T01:24:00;8.60;99.90
15343;DHT22;7771;48.478;8.936;2024-03-07T01:26:28;8.60;99.90
15343;DHT22;7771;48.478;8.936;2024-03-07T01:28:56;8.50;99.90
15343;DHT22;7771;48.478;8.936;2024-03-07T01:31:22;8.50;99.90
15343;DHT22;7771;48.478;8.936;2024-03-07T01:33:49;8.50;99.90
15343;DHT22;7771;48.478;8.936;2024-03-07T01:38:44;8.50;99.90
15343;DHT22;7771;48.478;8.936;2024-03-07T01:41:11;8.50;99.90
15343;DHT22;7771;48.478;8.936;2024-03-07T01:43:38;8.50;99.90
15343;DHT22;7771;48.478;8.936;2024-03-07T01:46:06;8.50;99.90
15343;DHT22;7771;48.478;8.936;2024-03-07T01:48:33;8.50;99.90
15343;DHT22;7771;48.478;8.936;2024-03-07T01:51:01;8.50;99.90
15343;DHT22;7771;48.478;8.936;2024-03-07T01:53:32;8.40;99.90
15343;DHT22;7771;48.478;8.936;2024-03-07T01:55:58;8.40;99.90
15343;DHT22;7771;48.478;8.936;2024-03-07T01:58:26;8.40;99.90
15343;DHT22;7771;48.478;8.936;2024-03-07T02:00:54;8.40;99.90
15343;DHT22;7771;48.478;8.936;2024-03-07T02:05:48;8.30;99.90
15343;DHT22;7771;48.478;8.936;2024-03-07T02:08:16;8.30;99.90
15343;DHT22;7771;48.478;8.936;2024-03-07T02:10:44;8.30;99.90
15343;DHT22;7771;48.478;8.936;2024-03-07T02:13:11;8.30;99.90
15343;DHT22;7771;48.478;8.936;2024-03-07T02:15:39;8.30;99.90
15343;DHT22;7771;48.478;8.936;2024-03-07T02:18:06;8.30;99.90
15343;DHT22;7771;48.478;8.936;2024-03-07T02:20:33;8.20;99.90
15343;DHT22;7771;48.478;8.936;2024-03-07T02:23:01;8.20;99.90
15343;DHT22;7771;48.478;8.936;2024-03-07T02:25:28;8.20;99.90
15343;DHT22;7771;48.478;8.936;2024-03-07T02:27:55;8.20;99.90
15343;DHT22;7771;48.478;8.936;2024-03-07T02:30:22;8.20;99.90
15343;DHT22;7771;48.478;8.936;2024-03-07T02:32:49;8.20;99.90
15343;DHT22;7771;48.478;8.936;2024-03-07T02:35:17;8.20;99.90
15343;DHT22;7771;48.478;8.936;2024-03-07T02:37:43;8.10;99.90
15343;DHT22;7771;48.478;8.936;2024-03-07T02:40:11;8.10;99.90
15343;DHT22;7771;48.478;8.936;2024-03-07T02:42:39;8.10;99.90
15343;DHT22;7771;48.478;8.936;2024-03-07T02:45:07;8.10;99.90
15343;DHT22;7771;48.478;8.936;2024-03-07T02:47:35;8.10;99.90
15343;DHT22;7771;48.478;8.936;2024-03-07T02:50:03;8.00;99.90
15343;DHT22;7771;48.478;8.936;2024-03-07T02:54:58;8.00;99.90
15343;DHT22;7771;48.478;8.936;2024-03-07T02:57:25;7.90;99.90
15343;DHT22;7771;48.478;8.936;2024-03-07T03:02:20;7.90;99.90
15343;DHT22;7771;48.478;8.936;2024-03-07T03:04:46;7.90;99.90
15343;DHT22;7771;48.478;8.936;2024-03-07T03:07:13;7.90;99.90
15343;DHT22;7771;48.478;8.936;2024-03-07T03:09:40;7.80;99.90
15343;DHT22;7771;48.478;8.936;2024-03-07T03:12:06;7.70;99.90
15343;DHT22;7771;48.478;8.936;2024-03-07T03:14:33;7.70;99.90
15343;DHT22;7771;48.478;8.936;2024-03-07T03:17:02;7.60;99.90
15343;DHT22;7771;48.478;8.936;2024-03-07T03:19:28;7.60;99.90
15343;DHT22;7771;48.478;8.936;2024-03-07T03:24:24;7.50;99.90
15343;DHT22;7771;48.478;8.936;2024-03-07T03:26:52;7.40;99.90
15343;DHT22;7771;48.478;8.936;2024-03-07T03:29:19;7.40;99.90
15343;DHT22;7771;48.478;8.936;2024-03-07T03:31:46;7.40;99.90
15343;DHT22;7771;48.478;8.936;2024-03-07T03:34:13;7.30;99.90
15343;DHT22;7771;48.478;8.936;2024-03-07T03:36:39;7.30;99.90
15343;DHT22;7771;48.478;8.936;2024-03-07T03:39:07;7.20;99.90
15343;DHT22;7771;48.478;8.936;2024-03-07T03:41:33;7.20;99.90
15343;DHT22;7771;48.478;8.936;2024-03-07T03:44:01;7.10;99.90
15343;DHT22;7771;48.478;8.936;2024-03-07T03:48:56;7.00;99.90
15343;DHT22;7771;48.478;8.936;2024-03-07T03:51:23;7.00;99.90
15343;DHT22;7771;48.478;8.936;2024-03-07T03:53:51;7.00;99.90
15343;DHT22;7771;48.478;8.936;2024-03-07T03:56:17;7.00;99.90
15343;DHT22;7771;48.478;8.936;2024-03-07T03:58:45;7.00;99.90
15343;DHT22;7771;48.478;8.936;2024-03-07T04:01:11;7.00;99.90
15343;DHT22;7771;48.478;8.936;2024-03-07T04:03:39;7.10;99.90
15343;DHT22;7771;48.478;8.936;2024-03-07T04:06:05;7.10;99.90
15343;DHT22;7771;48.478;8.936;2024-03-07T04:08:33;7.00;99.90
15343;DHT22;7771;48.478;8.936;2024-03-07T04:11:01;7.00;99.90
15343;DHT22;7771;48.478;8.936;2024-03-07T04:13:27;7.00;99.90
15343;DHT22;7771;48.478;8.936;2024-03-07T04:15:55;6.90;99.90
15343;DHT22;7771;48.478;8.936;2024-03-07T04:18:22;7.00;99.90
15343;DHT22;7771;48.478;8.936;2024-03-07T04:20:49;6.90;99.90
15343;DHT22;7771;48.478;8.936;2024-03-07T04:23:16;6.90;99.90
15343;DHT22;7771;48.478;8.936;2024-03-07T04:25:42;6.90;99.90
15343;DHT22;7771;48.478;8.936;2024-03-07T04:28:09;7.00;99.90
15343;DHT22;7771;48.478;8.936;2024-03-07T04:30:36;7.00;99.90
15343;DHT22;7771;48.478;8.936;2024-03-07T04:33:03;7.00;99.90
15343;DHT22;7771;48.478;8.936;2024-03-07T04:35:30;7.00;99.90
15343;DHT22;7771;48.478;8.936;2024-03-07T04:37:56;7.00;99.90
15343;DHT22;7771;48.478;8.936;2024-03-07T04:40:23;7.00;99.90
15343;DHT22;7771;48.478;8.936;2024-03-07T04:42:50;7.00;99.90
15343;DHT22;7771;48.478;8.936;2024-03-07T04:45:17;7.00;99.90
15343;DHT22;7771;48.478;8.936;2024-03-07T04:47:43;6.90;99.90
15343;DHT22;7771;48.478;8.936;2024-03-07T04:50:10;6.90;99.90
15343;DHT22;7771;48.478;8.936;2024-03-07T04:55:06;6.90;99.90
15343;DHT22;7771;48.478;8.936;2024-03-07T04:57:32;6.90;99.90
15343;DHT22;7771;48.478;8.936;2024-03-07T04:59:59;6.90;99.90
15343;DHT22;7771;48.478;8.936;2024-03-07T05:02:26;6.90;99.90
15343;DHT22;7771;48.478;8.936;2024-03-07T05:04:54;7.00;99.90
15343;DHT22;7771;48.478;8.936;2024-03-07T05:07:21;7.00;99.90
15343;DHT22;7771;48.478;8.936;2024-03-07T05:09:49;7.00;99.90
15343;DHT22;7771;48.478;8.936;2024-03-07T05:12:17;7.00;99.90
15343;DHT22;7771;48.478;8.936;2024-03-07T05:14:45;7.10;99.90
15343;DHT22;7771;48.478;8.936;2024-03-07T05:17:11;7.10;99.90
15343;DHT22;7771;48.478;8.936;2024-03-07T05:19:39;7.10;99.90
15343;DHT22;7771;48.478;8.936;2024-03-07T05:22:07;7.10;99.90
15343;DHT22;7771;48.478;8.936;2024-03-07T05:24:34;7.00;99.90
15343;DHT22;7771;48.478;8.936;2024-03-07T05:27:01;7.00;99.90
15343;DHT22;7771;48.478;8.936;2024-03-07T05:29:29;6.90;99.90
15343;DHT22;7771;48.478;8.936;2024-03-07T05:32:17;7.00;99.90
15343;DHT22;7771;48.478;8.936;2024-03-07T05:34:23;6.90;99.90
15343;DHT22;7771;48.478;8.936;2024-03-07T05:36:50;6.80;99.90
15343;DHT22;7771;48.478;8.936;2024-03-07T05:39:17;6.80;99.90
15343;DHT22;7771;48.478;8.936;2024-03-07T05:41:44;6.80;99.90
15343;DHT22;7771;48.478;8.936;2024-03-07T05:44:12;6.60;99.90
15343;DHT22;7771;48.478;8.936;2024-03-07T05:46:39;6.60;99.90
15343;DHT22;7771;48.478;8.936;2024-03-07T05:49:08;6.60;99.90
15343;DHT22;7771;48.478;8.936;2024-03-07T05:51:36;6.60;99.90
15343;DHT22;7771;48.478;8.936;2024-03-07T05:56:33;6.60;99.90
15343;DHT22;7771;48.478;8.936;2024-03-07T05:59:03;6.60;99.90
15343;DHT22;7771;48.478;8.936;2024-03-07T06:01:31;6.70;99.90
15343;DHT22;7771;48.478;8.936;2024-03-07T06:03:58;6.70;99.90
15343;DHT22;7771;48.478;8.936;2024-03-07T06:06:24;6.60;99.90
15343;DHT22;7771;48.478;8.936;2024-03-07T06:08:52;6.60;99.90
15343;DHT22;7771;48.478;8.936;2024-03-07T06:13:47;6.50;99.90
15343;DHT22;7771;48.478;8.936;2024-03-07T06:16:14;6.50;99.90
15343;DHT22;7771;48.478;8.936;2024-03-07T06:18:41;6.60;99.90
15343;DHT22;7771;48.478;8.936;2024-03-07T06:21:08;6.50;99.90
15343;DHT22;7771;48.478;8.936;2024-03-07T06:23:35;6.50;99.90
15343;DHT22;7771;48.478;8.936;2024-03-07T06:26:02;6.50;99.90
15343;DHT22;7771;48.478;8.936;2024-03-07T06:28:31;6.50;99.90
15343;DHT22;7771;48.478;8.936;2024-03-07T06:30:57;6.50;99.90
15343;DHT22;7771;48.478;8.936;2024-03-07T06:33:24;6.50;99.90
15343;DHT22;7771;48.478;8.936;2024-03-07T06:35:53;6.50;99.90
15343;DHT22;7771;48.478;8.936;2024-03-07T06:40:47;6.40;99.90
15343;DHT22;7771;48.478;8.936;2024-03-07T06:45:42;6.30;99.90
15343;DHT22;7771;48.478;8.936;2024-03-07T06:48:09;6.30;99.90
15343;DHT22;7771;48.478;8.936;2024-03-07T06:50:36;6.40;99.90
15343;DHT22;7771;48.478;8.936;2024-03-07T06:53:04;6.40;99.90
15343;DHT22;7771;48.478;8.936;2024-03-07T06:55:30;6.30;99.90
15343;DHT22;7771;48.478;8.936;2024-03-07T06:57:58;6.30;99.90
15343;DHT22;7771;48.478;8.936;2024-03-07T07:00:25;6.40;99.90
15343;DHT22;7771;48.478;8.936;2024-03-07T07:02:52;6.30;99.90
15343;DHT22;7771;48.478;8.936;2024-03-07T07:07:50;6.30;99.90
15343;DHT22;7771;48.478;8.936;2024-03-07T07:10:18;6.30;99.90
15343;DHT22;7771;48.478;8.936;2024-03-07T07:12:45;6.20;99.90
15343;DHT22;7771;48.478;8.936;2024-03-07T07:15:12;6.30;99.90
15343;DHT22;7771;48.478;8.936;2024-03-07T07:17:38;6.40;99.90
15343;DHT22;7771;48.478;8.936;2024-03-07T07:20:06;6.40;99.90
15343;DHT22;7771;48.478;8.936;2024-03-07T07:22:33;6.30;99.90
15343;DHT22;7771;48.478;8.936;2024-03-07T07:25:00;6.30;99.90
15343;DHT22;7771;48.478;8.936;2024-03-07T07:27:26;6.30;99.90
15343;DHT22;7771;48.478;8.936;2024-03-07T07:29:55;6.20;99.90
15343;DHT22;7771;48.478;8.936;2024-03-07T07:32:21;6.20;99.90
15343;DHT22;7771;48.478;8.936;2024-03-07T07:34:48;6.20;99.90
15343;DHT22;7771;48.478;8.936;2024-03-07T07:37:15;6.30;99.90
15343;DHT22;7771;48.478;8.936;2024-03-07T07:42:11;6.30;99.90
15343;DHT22;7771;48.478;8.936;2024-03-07T07:44:39;6.40;99.90
15343;DHT22;7771;48.478;8.936;2024-03-07T07:49:34;6.30;99.90
15343;DHT22;7771;48.478;8.936;2024-03-07T07:52:01;6.30;99.90
15343;DHT22;7771;48.478;8.936;2024-03-07T07:54:29;6.30;99.90
15343;DHT22;7771;48.478;8.936;2024-03-07T07:56:56;6.20;99.90
15343;DHT22;7771;48.478;8.936;2024-03-07T07:59:23;6.20;99.90
15343;DHT22;7771;48.478;8.936;2024-03-07T08:01:50;6.20;99.90
15343;DHT22;7771;48.478;8.936;2024-03-07T08:04:17;6.20;99.90
15343;DHT22;7771;48.478;8.936;2024-03-07T08:09:12;6.30;99.90
15343;DHT22;7771;48.478;8.936;2024-03-07T08:11:39;6.40;99.90
15343;DHT22;7771;48.478;8.936;2024-03-07T08:16:34;6.40;99.90
15343;DHT22;7771;48.478;8.936;2024-03-07T08:19:01;6.30;99.90
15343;DHT22;7771;48.478;8.936;2024-03-07T08:21:28;6.30;99.90
15343;DHT22;7771;48.478;8.936;2024-03-07T08:23:56;6.30;99.90
15343;DHT22;7771;48.478;8.936;2024-03-07T08:31:19;6.20;99.90
15343;DHT22;7771;48.478;8.936;2024-03-07T08:36:14;6.20;99.90
15343;DHT22;7771;48.478;8.936;2024-03-07T08:38:42;6.20;99.90
15343;DHT22;7771;48.478;8.936;2024-03-07T08:41:08;6.20;99.90
15343;DHT22;7771;48.478;8.936;2024-03-07T08:46:03;6.10;99.90
15343;DHT22;7771;48.478;8.936;2024-03-07T08:48:30;6.20;99.90
15343;DHT22;7771;48.478;8.936;2024-03-07T08:53:25;6.20;99.90
15343;DHT22;7771;48.478;8.936;2024-03-07T08:55:51;6.20;99.90
15343;DHT22;7771;48.478;8.936;2024-03-07T09:00:47;6.30;99.90
15343;DHT22;7771;48.478;8.936;2024-03-07T09:03:15;6.40;99.90
15343;DHT22;7771;48.478;8.936;2024-03-07T09:05:43;6.40;99.90
15343;DHT22;7771;48.478;8.936;2024-03-07T09:08:11;6.40;99.90
15343;DHT22;7771;48.478;8.936;2024-03-07T09:10:37;6.40;99.90
15343;DHT22;7771;48.478;8.936;2024-03-07T09:13:05;6.40;99.90
15343;DHT22;7771;48.478;8.936;2024-03-07T09:15:32;6.50;99.90
15343;DHT22;7771;48.478;8.936;2024-03-07T09:17:59;6.50;99.90
15343;DHT22;7771;48.478;8.936;2024-03-07T09:20:26;6.40;99.90
15343;DHT22;7771;48.478;8.936;2024-03-07T09:22:53;6.50;99.90
15343;DHT22;7771;48.478;8.936;2024-03-07T09:25:20;6.50;99.90
15343;DHT22;7771;48.478;8.936;2024-03-07T09:27:47;6.50;99.90
15343;DHT22;7771;48.478;8.936;2024-03-07T09:35:10;6.70;99.90
15343;DHT22;7771;48.478;8.936;2024-03-07T09:37:39;6.80;99.90
15343;DHT22;7771;48.478;8.936;2024-03-07T09:40:06;6.80;99.90
15343;DHT22;7771;48.478;8.936;2024-03-07T09:42:34;6.80;99.90
15343;DHT22;7771;48.478;8.936;2024-03-07T09:45:02;6.80;99.90
15343;DHT22;7771;48.478;8.936;2024-03-07T09:49:57;6.90;99.90
15343;DHT22;7771;48.478;8.936;2024-03-07T09:52:25;6.90;99.90
15343;DHT22;7771;48.478;8.936;2024-03-07T09:54:53;6.90;99.90
15343;DHT22;7771;48.478;8.936;2024-03-07T09:57:20;7.00;99.90
15343;DHT22;7771;48.478;8.936;2024-03-07T10:02:16;7.10;99.90
15343;DHT22;7771;48.478;8.936;2024-03-07T10:04:43;7.10;99.90
15343;DHT22;7771;48.478;8.936;2024-03-07T10:07:12;7.00;99.90
15343;DHT22;7771;48.478;8.936;2024-03-07T10:09:39;7.00;99.90
15343;DHT22;7771;48.478;8.936;2024-03-07T10:14:36;7.10;99.90
15343;DHT22;7771;48.478;8.936;2024-03-07T10:17:03;7.20;99.90
15343;DHT22;7771;48.478;8.936;2024-03-07T10:19:31;7.30;99.90
15343;DHT22;7771;48.478;8.936;2024-03-07T10:21:59;7.30;99.90
15343;DHT22;7771;48.478;8.936;2024-03-07T10:24:25;7.40;99.90
15343;DHT22;7771;48.478;8.936;2024-03-07T10:26:53;7.40;99.90
15343;DHT22;7771;48.478;8.936;2024-03-07T10:29:19;7.40;99.90
15343;DHT22;7771;48.478;8.936;2024-03-07T10:31:48;7.50;99.90
15343;DHT22;7771;48.478;8.936;2024-03-07T10:34:15;7.50;99.90
15343;DHT22;7771;48.478;8.936;2024-03-07T10:41:44;7.60;99.90
15343;DHT22;7771;48.478;8.936;2024-03-07T10:44:11;7.60;
15343;DHT22;7771;48.478;8.936;2024-03-07T10:49:05;7.50;99.90
15343;DHT22;7771;48.478;8.936;2024-03-07T10:51:33;7.50;99.90
15343;DHT22;7771;48.478;8.936;2024-03-07T10:54:20;7.60;99.90
15343;DHT22;7771;48.478;8.936;2024-03-07T10:59:16;7.60;99.90
15343;DHT22;7771;48.478;8.936;2024-03-07T11:02:09;7.70;99.90
15343;DHT22;7771;48.478;8.936;2024-03-07T11:04:31;7.80;99.90
15343;DHT22;7771;48.478;8.936;2024-03-07T11:06:57;7.90;99.90
15343;DHT22;7771;48.478;8.936;2024-03-07T11:09:24;7.90;99.90
15343;DHT22;7771;48.478;8.936;2024-03-07T11:11:52;8.00;99.90
15343;DHT22;7771;48.478;8.936;2024-03-07T11:14:19;8.10;99.90
15343;DHT22;7771;48.478;8.936;2024-03-07T11:16:46;8.10;99.90
15343;DHT22;7771;48.478;8.936;2024-03-07T11:19:19;8.10;99.90
15343;DHT22;7771;48.478;8.936;2024-03-07T11:21:45;8.20;99.90
15343;DHT22;7771;48.478;8.936;2024-03-07T11:24:25;8.20;99.90
15343;DHT22;7771;48.478;8.936;2024-03-07T11:26:52;8.20;99.90
15343;DHT22;7771;48.478;8.936;2024-03-07T11:29:38;8.30;99.90
15343;DHT22;7771;48.478;8.936;2024-03-07T11:32:06;8.40;99.90
15343;DHT22;7771;48.478;8.936;2024-03-07T11:34:31;8.40;99.90
15343;DHT22;7771;48.478;8.936;2024-03-07T11:39:45;8.40;99.90
15343;DHT22;7771;48.478;8.936;2024-03-07T11:42:27;8.30;99.90
15343;DHT22;7771;48.478;8.936;2024-03-07T11:44:54;8.30;99.90
15343;DHT22;7771;48.478;8.936;2024-03-07T11:47:22;8.20;99.90
15343;DHT22;7771;48.478;8.936;2024-03-07T11:49:48;8.10;99.90
15343;DHT22;7771;48.478;8.936;2024-03-07T11:52:15;8.10;99.90
15343;DHT22;7771;48.478;8.936;2024-03-07T11:54:42;8.10;99.90
15343;DHT22;7771;48.478;8.936;2024-03-07T11:57:18;8.30;99.90
15343;DHT22;7771;48.478;8.936;2024-03-07T11:59:47;8.30;99.90
15343;DHT22;7771;48.478;8.936;2024-03-07T12:02:14;8.30;99.90
15343;DHT22;7771;48.478;8.936;2024-03-07T12:04:42;8.30;99.90
15343;DHT22;7771;48.478;8.936;2024-03-07T12:07:08;8.40;99.90
15343;DHT22;7771;48.478;8.936;2024-03-07T12:09:37;8.50;99.90
15343;DHT22;7771;48.478;8.936;2024-03-07T12:14:32;8.50;99.90
15343;DHT22;7771;48.478;8.936;2024-03-07T12:16:59;8.50;99.90
15343;DHT22;7771;48.478;8.936;2024-03-07T12:21:59;8.70;99.90
15343;DHT22;7771;48.478;8.936;2024-03-07T12:24:24;8.70;99.90
15343;DHT22;7771;48.478;8.936;2024-03-07T12:26:51;8.90;99.90
15343;DHT22;7771;48.478;8.936;2024-03-07T12:29:19;8.90;99.90
15343;DHT22;7771;48.478;8.936;2024-03-07T12:31:47;9.00;99.90
15343;DHT22;7771;48.478;8.936;2024-03-07T12:34:15;9.00;99.90
15343;DHT22;7771;48.478;8.936;2024-03-07T12:36:42;9.00;99.90
15343;DHT22;7771;48.478;8.936;2024-03-07T12:39:22;9.10;99.90
15343;DHT22;7771;48.478;8.936;2024-03-07T12:41:50;9.10;99.90
15343;DHT22;7771;48.478;8.936;2024-03-07T12:44:19;9.10;99.90
15343;DHT22;7771;48.478;8.936;2024-03-07T12:46:48;9.10;99.90
15343;DHT22;7771;48.478;8.936;2024-03-07T12:49:15;9.20;99.90
15343;DHT22;7771;48.478;8.936;2024-03-07T12:51:42;9.30;99.90
15343;DHT22;7771;48.478;8.936;2024-03-07T12:54:09;9.30;99.90
15343;DHT22;7771;48.478;8.936;2024-03-07T12:56:37;9.30;99.90
15343;DHT22;7771;48.478;8.936;2024-03-07T12:59:06;9.30;99.90
15343;DHT22;7771;48.478;8.936;2024-03-07T13:01:33;9.40;99.90
15343;DHT22;7771;48.478;8.936;2024-03-07T13:04:00;9.50;99.90
15343;DHT22;7771;48.478;8.936;2024-03-07T13:06:27;9.50;99.90
15343;DHT22;7771;48.478;8.936;2024-03-07T13:11:33;9.50;99.90
15343;DHT22;7771;48.478;8.936;2024-03-07T13:14:00;9.50;99.90
15343;DHT22;7771;48.478;8.936;2024-03-07T13:16:28;9.50;99.90
15343;DHT22;7771;48.478;8.936;2024-03-07T13:18:54;9.50;99.90
15343;DHT22;7771;48.478;8.936;2024-03-07T13:23:50;9.60;99.90
15343;DHT22;7771;48.478;8.936;2024-03-07T13:26:20;9.60;99.90
15343;DHT22;7771;48.478;8.936;2024-03-07T13:31:12;9.60;99.90
15343;DHT22;7771;48.478;8.936;2024-03-07T13:38:36;9.60;99.90
15343;DHT22;7771;48.478;8.936;2024-03-07T13:41:03;9.60;99.90
15343;DHT22;7771;48.478;8.936;2024-03-07T13:43:31;9.60;99.90
15343;DHT22;7771;48.478;8.936;2024-03-07T13:45:59;9.60;99.90
15343;DHT22;7771;48.478;8.936;2024-03-07T13:50:55;9.60;99.90
15343;DHT22;7771;48.478;8.936;2024-03-07T13:53:21;9.50;99.90
15343;DHT22;7771;48.478;8.936;2024-03-07T13:56:23;9.50;99.90
15343;DHT22;7771;48.478;8.936;2024-03-07T14:01:32;9.40;99.90
15343;DHT22;7771;48.478;8.936;2024-03-07T14:20:15;9.10;99.90
15343;DHT22;7771;48.478;8.936;2024-03-07T14:22:47;9.20;99.90
15343;DHT22;7771;48.478;8.936;2024-03-07T14:27:50;9.30;99.90
15343;DHT22;7771;48.478;8.936;2024-03-07T14:30:42;9.30;99.90
15343;DHT22;7771;48.478;8.936;2024-03-07T14:33:09;9.40;99.90
15343;DHT22;7771;48.478;8.936;2024-03-07T14:41:04;9.50;99.90
15343;DHT22;7771;48.478;8.936;2024-03-07T14:43:31;9.50;99.90
15343;DHT22;7771;48.478;8.936;2024-03-07T14:45:58;9.60;99.90
15343;DHT22;7771;48.478;8.936;2024-03-07T14:48:26;9.60;99.90
15343;DHT22;7771;48.478;8.936;2024-03-07T14:50:53;9.70;99.90
15343;DHT22;7771;48.478;8.936;2024-03-07T14:53:20;9.80;99.90
15343;DHT22;7771;48.478;8.936;2024-03-07T14:58:15;9.80;99.90
15343;DHT22;7771;48.478;8.936;2024-03-07T15:00:42;9.90;99.90
15343;DHT22;7771;48.478;8.936;2024-03-07T15:03:11;9.90;99.90
15343;DHT22;7771;48.478;8.936;2024-03-07T15:05:38;10.00;99.90
15343;DHT22;7771;48.478;8.936;2024-03-07T15:08:05;10.00;99.90
15343;DHT22;7771;48.478;8.936;2024-03-07T15:10:34;10.00;99.90
15343;DHT22;7771;48.478;8.936;2024-03-07T15:15:29;9.90;99.90
15343;DHT22;7771;48.478;8.936;2024-03-07T15:17:58;9.80;99.90
15343;DHT22;7771;48.478;8.936;2024-03-07T15:20:25;9.80;99.90
15343;DHT22;7771;48.478;8.936;2024-03-07T15:22:53;9.80;99.90
15343;DHT22;7771;48.478;8.936;2024-03-07T15:25:19;9.80;99.90
15343;DHT22;7771;48.478;8.936;2024-03-07T15:27:46;9.80;99.90
15343;DHT22;7771;48.478;8.936;2024-03-07T15:30:12;9.80;99.90
15343;DHT22;7771;48.478;8.936;2024-03-07T15:32:41;9.80;99.90
15343;DHT22;7771;48.478;8.936;2024-03-07T15:35:10;9.80;99.90
15343;DHT22;7771;48.478;8.936;2024-03-07T15:37:39;9.80;99.90
15343;DHT22;7771;48.478;8.936;2024-03-07T15:40:08;9.80;99.90
15343;DHT22;7771;48.478;8.936;2024-03-07T15:42:39;9.70;99.90
15343;DHT22;7771;48.478;8.936;2024-03-07T15:45:08;9.70;99.90
15343;DHT22;7771;48.478;8.936;2024-03-07T15:47:38;9.70;99.90
15343;DHT22;7771;48.478;8.936;2024-03-07T15:50:06;9.70;99.90
15343;DHT22;7771;48.478;8.936;2024-03-07T15:52:34;9.60;99.90
15343;DHT22;7771;48.478;8.936;2024-03-07T15:55:00;9.60;99.90
15343;DHT22;7771;48.478;8.936;2024-03-07T15:57:28;9.60;99.90
15343;DHT22;7771;48.478;8.936;2024-03-07T15:59:56;9.60;99.90
15343;DHT22;7771;48.478;8.936;2024-03-07T16:02:23;9.50;99.90
15343;DHT22;7771;48.478;8.936;2024-03-07T16:04:50;9.50;99.90
15343;DHT22;7771;48.478;8.936;2024-03-07T16:07:17;9.50;99.90
15343;DHT22;7771;48.478;8.936;2024-03-07T16:09:44;9.50;99.90
15343;DHT22;7771;48.478;8.936;2024-03-07T16:12:11;9.50;99.90
15343;DHT22;7771;48.478;8.936;2024-03-07T16:14:39;9.50;99.90
15343;DHT22;7771;48.478;8.936;2024-03-07T16:17:06;9.50;99.90
15343;DHT22;7771;48.478;8.936;2024-03-07T16:19:35;9.50;99.90
15343;DHT22;7771;48.478;8.936;2024-03-07T16:22:01;9.50;99.90
15343;DHT22;7771;48.478;8.936;2024-03-07T16:24:29;9.50;99.90
15343;DHT22;7771;48.478;8.936;2024-03-07T16:26:55;9.40;99.90
15343;DHT22;7771;48.478;8.936;2024-03-07T16:29:23;9.40;99.90
15343;DHT22;7771;48.478;8.936;2024-03-07T16:31:51;9.40;99.90
15343;DHT22;7771;48.478;8.936;2024-03-07T16:34:19;9.40;99.90
15343;DHT22;7771;48.478;8.936;2024-03-07T16:36:47;9.30;99.90
15343;DHT22;7771;48.478;8.936;2024-03-07T16:39:13;9.20;99.90
15343;DHT22;7771;48.478;8.936;2024-03-07T16:44:09;9.20;99.90
15343;DHT22;7771;48.478;8.936;2024-03-07T16:46:37;9.20;99.90
15343;DHT22;7771;48.478;8.936;2024-03-07T16:49:04;9.20;99.90
15343;DHT22;7771;48.478;8.936;2024-03-07T16:51:31;9.20;99.90
15343;DHT22;7771;48.478;8.936;2024-03-07T16:53:59;9.10;99.90
15343;DHT22;7771;48.478;8.936;2024-03-07T16:56:26;9.20;99.90
15343;DHT22;7771;48.478;8.936;2024-03-07T16:58:53;9.10;99.90
15343;DHT22;7771;48.478;8.936;2024-03-07T17:03:48;9.10;99.90
15343;DHT22;7771;48.478;8.936;2024-03-07T17:06:15;9.10;99.90
15343;DHT22;7771;48.478;8.936;2024-03-07T17:11:10;9.10;99.90
15343;DHT22;7771;48.478;8.936;2024-03-07T17:13:37;9.00;99.90
15343;DHT22;7771;48.478;8.936;2024-03-07T17:16:04;9.00;99.90
15343;DHT22;7771;48.478;8.936;2024-03-07T17:20:59;9.00;99.90
15343;DHT22;7771;48.478;8.936;2024-03-07T17:23:25;8.90;99.90
15343;DHT22;7771;48.478;8.936;2024-03-07T17:28:20;8.90;99.90
15343;DHT22;7771;48.478;8.936;2024-03-07T17:30:47;9.00;99.90
15343;DHT22;7771;48.478;8.936;2024-03-07T17:33:14;8.90;99.90
15343;DHT22;7771;48.478;8.936;2024-03-07T17:40:38;8.90;99.90
15343;DHT22;7771;48.478;8.936;2024-03-07T17:45:32;8.90;99.90
15343;DHT22;7771;48.478;8.936;2024-03-07T17:48:01;8.90;99.90
15343;DHT22;7771;48.478;8.936;2024-03-07T17:50:29;8.80;99.90
15343;DHT22;7771;48.478;8.936;2024-03-07T17:52:56;8.80;99.90
15343;DHT22;7771;48.478;8.936;2024-03-07T17:55:23;8.80;99.90
15343;DHT22;7771;48.478;8.936;2024-03-07T17:57:51;8.80;99.90
15343;DHT22;7771;48.478;8.936;2024-03-07T18:00:18;8.80;99.90
15343;DHT22;7771;48.478;8.936;2024-03-07T18:05:19;8.80;99.90
15343;DHT22;7771;48.478;8.936;2024-03-07T18:07:47;8.80;99.90
15343;DHT22;7771;48.478;8.936;2024-03-07T18:10:14;8.80;99.90
15343;DHT22;7771;48.478;8.936;2024-03-07T18:15:11;8.80;99.90
15343;DHT22;7771;48.478;8.936;2024-03-07T18:17:38;8.70;99.90
15343;DHT22;7771;48.478;8.936;2024-03-07T18:20:06;8.70;99.90
15343;DHT22;7771;48.478;8.936;2024-03-07T18:22:36;8.70;99.90
15343;DHT22;7771;48.478;8.936;2024-03-07T18:25:02;8.70;99.90
15343;DHT22;7771;48.478;8.936;2024-03-07T18:27:29;8.70;99.90
15343;DHT22;7771;48.478;8.936;2024-03-07T18:29:56;8.70;99.90
15343;DHT22;7771;48.478;8.936;2024-03-07T18:32:22;8.70;99.90
15343;DHT22;7771;48.478;8.936;2024-03-07T18:34:49;8.70;99.90
15343;DHT22;7771;48.478;8.936;2024-03-07T18:37:16;8.70;99.90
15343;DHT22;7771;48.478;8.936;2024-03-07T18:39:44;8.70;99.90